createdAt,value
2023-04-04T00:00:21.886Z,14.33
2023-04-04T00:02:49.553Z,14.29
2023-04-04T00:05:17.215Z,14.28
2023-04-04T00:07:47.496Z,14.20
2023-04-04T00:10:15.055Z,14.21
2023-04-04T00:12:42.672Z,14.21
2023-04-04T00:15:10.313Z,14.22
2023-04-04T00:17:37.278Z,14.16
2023-04-04T00:20:04.653Z,14.15
2023-04-04T00:22:31.725Z,14.15
2023-04-04T00:24:59.235Z,14.13
2023-04-04T00:27:26.400Z,14.10
2023-04-04T00:29:53.584Z,14.06
2023-04-04T00:32:21.225Z,13.99
2023-04-04T00:34:53.735Z,13.94
2023-04-04T00:37:22.991Z,13.89
2023-04-04T00:39:50.486Z,13.87
2023-04-04T00:42:18.211Z,13.86
2023-04-04T00:44:45.448Z,13.84
2023-04-04T00:47:13.142Z,13.81
2023-04-04T00:49:40.597Z,13.80
2023-04-04T00:52:08.251Z,13.78
2023-04-04T00:54:35.983Z,13.74
2023-04-04T00:57:07.195Z,13.71
2023-04-04T00:59:34.369Z,13.69
2023-04-04T01:02:01.372Z,13.65
2023-04-04T01:04:29.630Z,13.65
2023-04-04T01:06:57.064Z,13.62
2023-04-04T01:09:24.467Z,13.52
2023-04-04T01:11:52.495Z,13.53
2023-04-04T01:14:19.820Z,13.51
2023-04-04T01:16:49.750Z,13.49
2023-04-04T01:19:30.688Z,13.47
2023-04-04T01:22:01.328Z,13.47
2023-04-04T01:24:33.888Z,13.46
2023-04-04T01:27:03.445Z,13.46
2023-04-04T01:29:32.367Z,13.47
2023-04-04T01:32:12.725Z,13.48
2023-04-04T01:34:50.181Z,13.45
2023-04-04T01:37:36.984Z,13.41
2023-04-04T01:40:12.511Z,13.36
2023-04-04T01:42:42.436Z,13.31
2023-04-04T01:45:09.617Z,13.28
2023-04-04T01:47:43.490Z,13.22
2023-04-04T01:50:16.747Z,13.23
2023-04-04T01:52:44.593Z,13.23
2023-04-04T01:55:11.662Z,13.21
2023-04-04T01:57:39.050Z,13.21
2023-04-04T02:00:07.461Z,13.18
2023-04-04T02:02:42.588Z,13.14
2023-04-04T02:05:11.109Z,13.14
2023-04-04T02:07:38.429Z,13.11
2023-04-04T02:10:12.487Z,13.07
2023-04-04T02:12:40.990Z,13.05
2023-04-04T02:15:08.310Z,13.04
2023-04-04T02:17:35.847Z,13.02
2023-04-04T02:20:04.115Z,13.02
2023-04-04T02:22:31.008Z,13.00
2023-04-04T02:24:58.011Z,13.01
2023-04-04T02:27:25.033Z,12.94
2023-04-04T02:29:51.992Z,12.87
2023-04-04T02:32:19.144Z,12.86
2023-04-04T02:34:46.980Z,12.82
2023-04-04T02:37:14.594Z,12.78
2023-04-04T02:39:42.725Z,12.82
2023-04-04T02:42:09.825Z,12.84
2023-04-04T02:44:37.199Z,12.84
2023-04-04T02:47:06.444Z,12.83
2023-04-04T02:49:33.388Z,12.79
2023-04-04T02:52:01.274Z,12.74
2023-04-04T02:54:33.211Z,12.63
2023-04-04T02:57:01.131Z,12.62
2023-04-04T02:59:28.533Z,12.57
2023-04-04T03:01:55.720Z,12.54
2023-04-04T03:04:23.158Z,12.43
2023-04-04T03:06:50.119Z,12.44
2023-04-04T03:09:17.454Z,12.40
2023-04-04T03:11:44.959Z,12.40
2023-04-04T03:14:12.261Z,12.39
2023-04-04T03:16:40.477Z,12.38
2023-04-04T03:19:07.731Z,12.39
2023-04-04T03:21:34.732Z,12.32
2023-04-04T03:24:01.761Z,12.28
2023-04-04T03:26:29.527Z,12.26
2023-04-04T03:28:56.924Z,12.23
2023-04-04T03:31:25.289Z,12.22
2023-04-04T03:33:52.968Z,12.22
2023-04-04T03:36:22.821Z,12.26
2023-04-04T03:38:50.832Z,12.27
2023-04-04T03:41:17.949Z,12.29
2023-04-04T03:43:45.747Z,12.30
2023-04-04T03:46:12.685Z,12.31
2023-04-04T03:48:40.230Z,12.33
2023-04-04T03:51:10.048Z,12.36
2023-04-04T03:53:38.504Z,12.34
2023-04-04T03:56:05.665Z,12.32
2023-04-04T03:58:35.555Z,12.27
2023-04-04T04:01:02.609Z,12.29
2023-04-04T04:03:32.044Z,12.29
2023-04-04T04:06:00.129Z,12.30
2023-04-04T04:08:27.925Z,12.27
2023-04-04T04:10:55.097Z,12.22
2023-04-04T04:13:22.299Z,12.22
2023-04-04T04:15:50.455Z,12.20
2023-04-04T04:18:21.575Z,12.14
2023-04-04T04:20:50.043Z,12.14
2023-04-04T04:23:18.240Z,12.07
2023-04-04T04:25:49.516Z,11.93
2023-04-04T04:28:19.336Z,11.87
2023-04-04T04:30:47.437Z,11.78
2023-04-04T04:33:19.499Z,11.79
2023-04-04T04:36:05.144Z,11.77
2023-04-04T04:38:42.267Z,11.70
2023-04-04T04:41:11.058Z,11.63
2023-04-04T04:43:45.273Z,11.57
2023-04-04T04:46:12.620Z,11.58
2023-04-04T04:48:39.881Z,11.58
2023-04-04T04:51:07.965Z,11.57
2023-04-04T04:53:42.794Z,11.57
2023-04-04T04:56:10.599Z,11.60
2023-04-04T04:58:41.216Z,11.63
2023-04-04T05:01:10.717Z,11.62
2023-04-04T05:03:39.716Z,11.64
2023-04-04T05:06:10.005Z,11.66
2023-04-04T05:08:38.214Z,11.67
2023-04-04T05:15:26.411Z,11.67
2023-04-04T05:17:53.868Z,11.67
2023-04-04T05:20:22.304Z,11.68
2023-04-04T05:22:51.642Z,11.68
2023-04-04T05:25:27.272Z,11.70
2023-04-04T05:27:55.869Z,11.67
2023-04-04T05:30:23.584Z,11.68
2023-04-04T05:33:20.163Z,11.68
2023-04-04T05:35:59.954Z,11.68
2023-04-04T05:38:28.609Z,11.67
2023-04-04T05:40:55.555Z,11.78
2023-04-04T05:43:23.990Z,12.05
2023-04-04T05:46:00.144Z,12.38
2023-04-04T05:48:28.980Z,12.65
2023-04-04T05:50:59.045Z,13.03
2023-04-04T05:53:49.014Z,13.53
2023-04-04T05:56:22.324Z,14.01
2023-04-04T05:58:49.406Z,14.47
2023-04-04T06:01:18.547Z,14.95
2023-04-04T06:03:46.891Z,15.42
2023-04-04T06:06:20.469Z,15.93
2023-04-04T06:08:53.606Z,16.35
2023-04-04T06:11:24.285Z,16.82
2023-04-04T06:13:55.294Z,17.25
2023-04-04T06:16:24.020Z,17.47
2023-04-04T06:18:51.088Z,17.95
2023-04-04T06:21:17.992Z,18.29
2023-04-04T06:23:44.852Z,18.78
2023-04-04T06:26:12.669Z,19.29
2023-04-04T06:28:49.713Z,19.77
2023-04-04T06:31:24.206Z,20.25
2023-04-04T06:33:53.881Z,20.84
2023-04-04T06:36:23.358Z,21.25
2023-04-04T06:38:51.671Z,21.66
2023-04-04T06:41:21.282Z,22.11
2023-04-04T06:43:50.124Z,22.41
2023-04-04T06:46:18.298Z,22.79
2023-04-04T06:48:45.294Z,23.24
2023-04-04T06:51:12.996Z,23.65
2023-04-04T06:53:44.503Z,23.92
2023-04-04T06:56:12.161Z,24.37
2023-04-04T06:58:39.690Z,24.57
2023-04-04T07:01:07.576Z,24.82
2023-04-04T07:03:34.598Z,25.12
2023-04-04T07:06:04.777Z,25.29
2023-04-04T07:08:36.151Z,25.82
2023-04-04T07:11:04.495Z,26.10
2023-04-04T07:13:31.315Z,26.50
2023-04-04T07:15:58.395Z,26.81
2023-04-04T07:18:25.257Z,27.08
2023-04-04T07:20:52.314Z,27.46
2023-04-04T07:23:19.180Z,27.82
2023-04-04T07:25:47.362Z,28.18
2023-04-04T07:28:14.260Z,28.68
2023-04-04T07:30:41.542Z,28.87
2023-04-04T07:33:08.729Z,29.33
2023-04-04T07:35:35.735Z,29.68
2023-04-04T07:38:03.298Z,29.77
2023-04-04T07:40:30.604Z,30.15
2023-04-04T07:42:57.741Z,30.48
2023-04-04T07:45:24.623Z,30.95
2023-04-04T07:47:51.682Z,31.30
2023-04-04T07:50:18.693Z,31.78
2023-04-04T07:52:52.459Z,32.17
2023-04-04T07:55:20.328Z,32.33
2023-04-04T07:57:47.736Z,32.81
2023-04-04T08:00:15.174Z,33.09
2023-04-04T08:02:44.320Z,33.09
2023-04-04T08:05:11.305Z,33.55
2023-04-04T08:07:38.244Z,31.53
2023-04-04T08:10:06.396Z,32.42
2023-04-04T08:12:33.310Z,33.30
2023-04-04T08:15:00.593Z,32.63
2023-04-04T08:17:28.717Z,31.75
2023-04-04T08:19:55.728Z,32.21
2023-04-04T08:22:22.740Z,32.43
2023-04-04T08:24:49.604Z,31.07
2023-04-04T08:27:17.062Z,31.05
2023-04-04T08:29:45.667Z,31.88
2023-04-04T08:32:13.412Z,32.72
2023-04-04T08:34:40.758Z,30.25
2023-04-04T08:37:08.943Z,29.53
2023-04-04T08:39:36.269Z,29.18
2023-04-04T08:42:05.706Z,27.81
2023-04-04T08:44:37.407Z,27.91
2023-04-04T08:47:05.784Z,28.88
2023-04-04T08:49:38.210Z,29.17
2023-04-04T08:52:07.585Z,29.04
2023-04-04T08:54:35.807Z,29.94
2023-04-04T08:57:04.310Z,29.00
2023-04-04T08:59:32.044Z,29.61
2023-04-04T09:02:24.703Z,29.12
2023-04-04T09:05:05.648Z,28.39
2023-04-04T09:07:34.978Z,26.66
2023-04-04T09:10:04.250Z,24.74
2023-04-04T09:12:33.302Z,24.66
2023-04-04T09:15:01.129Z,23.83
2023-04-04T09:17:28.592Z,23.80
2023-04-04T09:19:55.722Z,23.50
2023-04-04T09:22:22.821Z,22.41
2023-04-04T09:24:51.840Z,21.76
2023-04-04T09:27:19.169Z,21.08
2023-04-04T09:29:48.015Z,20.61
2023-04-04T09:32:16.348Z,20.47
2023-04-04T09:34:45.286Z,19.48
2023-04-04T09:37:16.230Z,20.59
2023-04-04T09:39:44.259Z,20.82
2023-04-04T09:42:12.373Z,21.11
2023-04-04T09:44:39.689Z,21.41
2023-04-04T09:47:30.471Z,22.16
2023-04-04T09:50:01.587Z,22.36
2023-04-04T09:52:33.997Z,22.89
2023-04-04T09:55:04.151Z,23.18
2023-04-04T09:57:33.629Z,22.94
2023-04-04T10:00:01.661Z,22.47
2023-04-04T10:02:31.211Z,22.50
2023-04-04T10:05:06.163Z,23.04
2023-04-04T10:07:33.980Z,23.84
2023-04-04T10:10:09.274Z,24.68
2023-04-04T10:12:39.127Z,24.80
2023-04-04T10:15:06.718Z,24.68
2023-04-04T10:17:41.422Z,24.19
2023-04-04T10:20:09.631Z,24.44
2023-04-04T10:22:38.085Z,23.60
2023-04-04T10:25:07.678Z,23.41
2023-04-04T10:27:34.807Z,23.38
2023-04-04T10:30:02.312Z,23.38
2023-04-04T10:32:38.332Z,23.08
2023-04-04T10:35:11.206Z,21.63
2023-04-04T10:37:43.938Z,21.29
2023-04-04T10:40:15.702Z,21.27
2023-04-04T10:42:47.204Z,21.52
2023-04-04T10:45:21.183Z,21.27
2023-04-04T10:47:49.408Z,20.73
2023-04-04T10:50:16.405Z,19.64
2023-04-04T10:52:44.862Z,20.42
2023-04-04T10:55:13.579Z,19.47
2023-04-04T10:57:47.408Z,18.79
2023-04-04T11:00:18.057Z,18.42
2023-04-04T11:02:59.954Z,18.35
2023-04-04T11:05:41.350Z,18.96
2023-04-04T11:08:10.952Z,18.00
2023-04-04T11:10:41.495Z,18.24
2023-04-04T11:13:16.430Z,17.99
2023-04-04T11:15:52.973Z,17.68
2023-04-04T11:18:32.711Z,18.13
2023-04-04T11:21:05.695Z,18.37
2023-04-04T11:23:47.684Z,18.48
2023-04-04T11:26:20.107Z,18.48
2023-04-04T11:28:47.257Z,18.45
2023-04-04T11:31:17.651Z,18.38
2023-04-04T11:34:04.528Z,18.33
2023-04-04T11:36:37.413Z,18.25
2023-04-04T11:39:11.793Z,18.21
2023-04-04T11:41:49.839Z,18.42
2023-04-04T11:44:17.684Z,18.20
2023-04-04T11:46:45.498Z,18.43
2023-04-04T11:49:12.480Z,18.36
2023-04-04T11:51:40.961Z,17.54
2023-04-04T11:54:17.896Z,17.74
2023-04-04T11:56:45.512Z,18.06
2023-04-04T11:59:13.330Z,18.14
2023-04-04T12:01:41.436Z,18.06
2023-04-04T12:04:09.607Z,17.72
2023-04-04T12:06:37.829Z,17.55
2023-04-04T12:09:06.340Z,17.46
2023-04-04T12:11:37.399Z,17.41
2023-04-04T12:14:04.319Z,17.37
2023-04-04T12:16:31.405Z,17.34
2023-04-04T12:19:02.146Z,17.52
2023-04-04T12:21:32.735Z,17.71
2023-04-04T12:23:59.816Z,17.52
2023-04-04T12:26:29.986Z,17.47
2023-04-04T12:28:58.297Z,17.39
2023-04-04T12:31:29.632Z,16.95
2023-04-04T12:33:56.685Z,16.91
2023-04-04T12:36:29.912Z,16.92
2023-04-04T12:39:08.551Z,17.08
2023-04-04T12:41:36.903Z,17.08
2023-04-04T12:44:09.895Z,16.96
2023-04-04T12:46:42.352Z,16.85
2023-04-04T12:49:14.092Z,16.74
2023-04-04T12:51:41.397Z,16.87
2023-04-04T12:54:08.471Z,16.91
2023-04-04T12:56:37.238Z,16.96
2023-04-04T12:59:08.410Z,17.09
2023-04-04T13:01:37.970Z,17.15
2023-04-04T13:04:04.884Z,17.25
2023-04-04T13:06:32.782Z,17.21
2023-04-04T13:08:59.878Z,17.02
2023-04-04T13:11:27.757Z,17.00
2023-04-04T13:14:03.127Z,16.43
2023-04-04T13:16:37.154Z,16.47
2023-04-04T13:19:04.955Z,16.76
2023-04-04T13:21:31.889Z,16.62
2023-04-04T13:23:58.927Z,16.68
2023-04-04T13:26:26.452Z,16.80
2023-04-04T13:28:53.284Z,16.63
2023-04-04T13:31:20.308Z,16.60
2023-04-04T13:33:47.629Z,16.13
2023-04-04T13:36:14.543Z,15.85
2023-04-04T13:38:41.628Z,16.09
2023-04-04T13:41:08.650Z,16.21
2023-04-04T13:43:35.841Z,16.16
2023-04-04T13:46:02.784Z,16.34
2023-04-04T13:48:30.013Z,16.24
2023-04-04T13:50:57.540Z,16.10
2023-04-04T13:53:24.488Z,16.09
2023-04-04T13:56:16.370Z,15.78
2023-04-04T13:58:38.545Z,15.62
2023-04-04T14:01:06.906Z,15.68
2023-04-04T14:03:34.014Z,15.59
2023-04-04T14:06:09.190Z,15.70
2023-04-04T14:08:36.557Z,16.02
2023-04-04T14:11:03.514Z,16.12
2023-04-04T14:13:30.415Z,16.22
2023-04-04T14:15:57.279Z,15.75
2023-04-04T14:18:24.184Z,15.79
2023-04-04T14:20:51.246Z,15.80
2023-04-04T14:23:18.155Z,15.66
2023-04-04T14:25:45.312Z,15.86
2023-04-04T14:28:12.379Z,15.91
2023-04-04T14:30:39.280Z,15.93
2023-04-04T14:33:06.225Z,15.86
2023-04-04T14:35:33.167Z,16.10
2023-04-04T14:38:00.116Z,15.97
2023-04-04T14:40:29.142Z,16.10
2023-04-04T14:42:56.256Z,15.66
2023-04-04T14:45:23.823Z,15.53
2023-04-04T14:47:51.091Z,15.50
2023-04-04T14:50:18.062Z,15.79
2023-04-04T14:52:45.325Z,15.46
2023-04-04T14:55:12.411Z,15.28
2023-04-04T14:57:57.068Z,15.16
2023-04-04T15:00:26.655Z,15.10
2023-04-04T15:02:53.677Z,14.83
2023-04-04T15:05:20.716Z,15.05
2023-04-04T15:07:47.803Z,15.15
2023-04-04T15:10:14.899Z,15.12
2023-04-04T15:12:42.003Z,15.17
2023-04-04T15:15:09.401Z,15.25
2023-04-04T15:17:36.739Z,15.18
2023-04-04T15:20:03.894Z,15.41
2023-04-04T15:22:30.895Z,15.19
2023-04-04T15:24:57.872Z,15.18
2023-04-04T15:27:24.706Z,15.24
2023-04-04T15:29:52.816Z,15.02
2023-04-04T15:32:19.756Z,15.22
2023-04-04T15:34:46.645Z,15.25
2023-04-04T15:37:13.565Z,15.55
2023-04-04T15:39:52.360Z,15.60
2023-04-04T15:42:20.811Z,15.39
2023-04-04T15:44:47.754Z,15.39
2023-04-04T15:47:16.668Z,15.68
2023-04-04T15:49:43.667Z,15.36
2023-04-04T15:52:10.871Z,15.41
2023-04-04T15:54:37.709Z,15.47
2023-04-04T15:57:04.644Z,15.60
2023-04-04T15:59:32.338Z,15.51
2023-04-04T16:01:59.969Z,15.55
2023-04-04T16:04:26.846Z,15.51
2023-04-04T16:06:53.746Z,15.32
2023-04-04T16:09:21.534Z,15.13
2023-04-04T16:11:48.589Z,15.15
2023-04-04T16:14:15.542Z,15.30
2023-04-04T16:16:42.497Z,15.37
2023-04-04T16:19:09.427Z,15.56
2023-04-04T16:21:36.966Z,15.45
2023-04-04T16:24:05.301Z,15.36
2023-04-04T16:26:32.285Z,15.45
2023-04-04T16:28:59.325Z,15.49
2023-04-04T16:31:26.428Z,15.35
2023-04-04T16:33:53.367Z,15.34
2023-04-04T16:36:20.559Z,15.47
2023-04-04T16:38:47.567Z,15.08
2023-04-04T16:41:16.355Z,15.18
2023-04-04T16:43:43.605Z,15.22
2023-04-04T16:46:10.838Z,14.95
2023-04-04T16:48:37.770Z,14.93
2023-04-04T16:51:04.881Z,14.79
2023-04-04T16:53:31.833Z,14.92
2023-04-04T16:55:58.702Z,14.95
2023-04-04T16:58:26.148Z,14.79
2023-04-04T17:00:53.064Z,14.88
2023-04-04T17:03:19.959Z,14.94
2023-04-04T17:05:47.969Z,14.99
2023-04-04T17:08:14.977Z,14.89
2023-04-04T17:10:43.152Z,14.81
2023-04-04T17:13:10.517Z,14.95
2023-04-04T17:15:37.455Z,14.76
2023-04-04T17:18:04.424Z,14.69
2023-04-04T17:20:34.230Z,14.76
2023-04-04T17:23:01.440Z,14.86
2023-04-04T17:25:29.345Z,14.76
2023-04-04T17:27:56.509Z,14.79
2023-04-04T17:30:23.587Z,14.84
2023-04-04T17:32:54.447Z,14.82
2023-04-04T17:35:21.834Z,14.87
2023-04-04T17:37:48.728Z,14.86
2023-04-04T17:40:15.719Z,14.88
2023-04-04T17:42:42.624Z,14.87
2023-04-04T17:45:10.365Z,14.92
2023-04-04T17:47:37.847Z,14.84
2023-04-04T17:50:05.734Z,14.80
2023-04-04T17:52:33.400Z,14.81
2023-04-04T17:55:00.684Z,14.77
2023-04-04T17:57:27.667Z,14.64
2023-04-04T17:59:54.786Z,14.64
2023-04-04T18:02:21.940Z,14.59
2023-04-04T18:04:48.835Z,14.38
2023-04-04T18:07:16.983Z,14.52
2023-04-04T18:09:44.655Z,14.51
2023-04-04T18:12:12.334Z,14.63
2023-04-04T18:14:39.284Z,14.66
2023-04-04T18:17:06.432Z,14.67
2023-04-04T18:19:33.508Z,14.54
2023-04-04T18:22:01.662Z,14.57
2023-04-04T18:24:28.645Z,14.66
2023-04-04T18:26:56.391Z,14.56
2023-04-04T18:29:23.407Z,14.53
2023-04-04T18:31:51.291Z,14.56
2023-04-04T18:34:18.491Z,14.56
2023-04-04T18:36:46.798Z,14.53
2023-04-04T18:39:17.392Z,14.55
2023-04-04T18:41:46.581Z,14.62
2023-04-04T18:44:13.841Z,14.61
2023-04-04T18:46:41.028Z,14.62
2023-04-04T18:49:08.180Z,14.67
2023-04-04T18:51:35.185Z,14.68
2023-04-04T18:54:02.206Z,14.68
2023-04-04T18:56:29.100Z,14.68
2023-04-04T18:58:56.579Z,14.68
2023-04-04T19:01:24.687Z,14.69
2023-04-04T19:03:53.886Z,14.69
2023-04-04T19:06:26.099Z,14.72
2023-04-04T19:08:56.846Z,14.79
2023-04-04T19:11:24.115Z,14.82
2023-04-04T19:13:51.373Z,14.82
2023-04-04T19:16:19.470Z,14.83
2023-04-04T19:18:46.509Z,14.84
2023-04-04T19:21:13.511Z,14.84
2023-04-04T19:23:40.975Z,14.86
2023-04-04T19:26:08.192Z,14.77
2023-04-04T19:28:35.804Z,14.83
2023-04-04T19:31:04.591Z,14.85
2023-04-04T19:33:33.232Z,14.89
2023-04-04T19:36:09.596Z,14.94
2023-04-04T19:38:42.630Z,14.97
2023-04-04T19:41:36.612Z,14.90
2023-04-04T19:44:06.498Z,14.96
2023-04-04T19:46:34.445Z,15.02
2023-04-04T19:49:24.626Z,15.07
2023-04-04T19:51:54.190Z,15.07
2023-04-04T19:54:28.704Z,15.08
2023-04-04T19:57:05.118Z,15.05
2023-04-04T20:00:10.978Z,15.01
2023-04-04T20:02:47.703Z,15.00
2023-04-04T20:05:47.115Z,15.06
2023-04-04T20:08:14.874Z,14.91
2023-04-04T20:10:42.571Z,14.79
2023-04-04T20:13:09.927Z,14.84
2023-04-04T20:16:00.626Z,14.70
2023-04-04T20:18:30.006Z,14.60
2023-04-04T20:20:58.369Z,14.61
2023-04-04T20:23:27.079Z,14.60
2023-04-04T20:25:54.716Z,14.65
2023-04-04T20:28:27.592Z,14.68
2023-04-04T20:30:54.968Z,14.68
2023-04-04T20:33:32.291Z,14.71
2023-04-04T20:36:06.218Z,14.72
2023-04-04T20:38:33.365Z,14.73
2023-04-04T20:41:00.836Z,14.72
2023-04-04T20:43:28.946Z,14.73
2023-04-04T20:45:56.127Z,14.73
2023-04-04T20:48:50.791Z,14.77
2023-04-04T20:51:31.497Z,14.76
2023-04-04T20:54:01.089Z,14.78
2023-04-04T20:56:52.638Z,14.82
2023-04-04T20:59:35.002Z,14.84
2023-04-04T21:02:11.464Z,14.85
2023-04-04T21:04:39.889Z,14.86
2023-04-04T21:07:06.905Z,14.87
2023-04-04T21:09:33.913Z,14.87
2023-04-04T21:12:01.890Z,14.85
2023-04-04T21:14:38.108Z,14.89
2023-04-04T21:17:07.110Z,14.91
2023-04-04T21:19:34.162Z,14.91
2023-04-04T21:22:01.224Z,14.93
2023-04-04T21:24:34.351Z,14.92
2023-04-04T21:27:04.625Z,14.92
2023-04-04T21:29:31.618Z,14.94
2023-04-04T21:31:59.107Z,14.93
2023-04-04T21:34:27.921Z,14.94
2023-04-04T21:36:59.889Z,14.93
2023-04-04T21:39:29.804Z,14.93
2023-04-04T21:42:04.051Z,14.92
2023-04-04T21:44:32.295Z,14.87
2023-04-04T21:46:59.171Z,14.83
2023-04-04T21:49:26.673Z,14.83
2023-04-04T21:51:53.645Z,14.81
2023-04-04T21:54:20.649Z,14.79
2023-04-04T21:56:47.756Z,14.79
2023-04-04T21:59:14.882Z,14.76
2023-04-04T22:01:41.975Z,14.74
2023-04-04T22:04:09.029Z,14.70
2023-04-04T22:06:36.505Z,14.68
2023-04-04T22:09:04.350Z,14.66
2023-04-04T22:11:34.838Z,14.65
2023-04-04T22:14:07.210Z,14.61
2023-04-04T22:16:40.347Z,14.59
2023-04-04T22:19:07.819Z,14.59
2023-04-04T22:21:37.159Z,14.54
2023-04-04T22:24:06.217Z,14.54
2023-04-04T22:26:33.745Z,14.50
2023-04-04T22:29:05.409Z,14.54
2023-04-04T22:31:37.643Z,14.49
2023-04-04T22:34:06.446Z,14.49
2023-04-04T22:36:34.593Z,14.45
2023-04-04T22:39:02.125Z,14.45
2023-04-04T22:41:30.218Z,14.40
2023-04-04T22:43:58.041Z,14.40
2023-04-04T22:46:26.667Z,14.40
2023-04-04T22:49:06.126Z,14.39
2023-04-04T22:51:43.342Z,14.35
2023-04-04T22:54:15.230Z,14.34
2023-04-04T22:56:42.367Z,14.32
2023-04-04T22:59:09.336Z,14.31
2023-04-04T23:01:36.650Z,14.29
2023-04-04T23:04:03.838Z,14.22
2023-04-04T23:06:31.451Z,14.23
2023-04-04T23:08:59.060Z,14.20
2023-04-04T23:11:27.543Z,14.19
2023-04-04T23:13:57.149Z,14.13
2023-04-04T23:16:26.653Z,14.10
2023-04-04T23:18:53.665Z,14.07
2023-04-04T23:21:22.053Z,14.03
2023-04-04T23:23:49.198Z,13.98
2023-04-04T23:26:16.387Z,14.00
2023-04-04T23:28:43.424Z,13.98
2023-04-04T23:31:10.741Z,13.98
2023-04-04T23:33:38.120Z,13.98
2023-04-04T23:36:07.314Z,13.97
2023-04-04T23:38:34.332Z,13.97
2023-04-04T23:41:01.364Z,13.98
2023-04-04T23:43:28.544Z,13.95
2023-04-04T23:45:55.696Z,13.94
2023-04-04T23:48:22.634Z,13.93
2023-04-04T23:50:50.259Z,13.89
2023-04-04T23:53:17.279Z,13.89
2023-04-04T23:55:44.219Z,13.86
2023-04-04T23:58:11.252Z,13.87
